Time;durP1;ratioP1;P1;durP2;ratioP2;P2;SDS_P1;SDS_P2;PMS_P1;PMS_P2;Temp;Humidity;BMP_temperature;BMP_pressure;BME280_temperature;BME280_humidity;BME280_pressure;Samples;Min_cycle;Max_cycle;Signal;HPM_P1;HPM_P2
2022/07/08 00:00:14;;;;;;;5.78;1.30;;;;;;;;;;5049615;28;20720;-14
2022/07/08 00:02:41;;;;;;;3.47;0.70;;;;;;;;;;5050072;28;20325;-15
2022/07/08 00:05:10;;;;;;;4.50;1.00;;;;;;;;;;5047761;28;20234;-15
2022/07/08 00:07:37;;;;;;;4.75;1.00;;;;;;;;;;5050160;28;20889;-14
2022/07/08 00:10:05;;;;;;;6.28;1.15;;;;;;;;;;5049911;28;21393;-14
2022/07/08 00:12:33;;;;;;;7.88;1.20;;;;;;;;;;5050467;28;20712;-14
2022/07/08 00:15:00;;;;;;;4.00;1.00;;;;;;;;;;5051195;28;21124;-14
2022/07/08 00:17:28;;;;;;;4.80;1.02;;;;;;;;;;5053803;28;20236;-14
2022/07/08 00:19:55;;;;;;;4.70;1.00;;;;;;;;;;5053164;28;20237;-14
2022/07/08 00:22:24;;;;;;;3.22;1.02;;;;;;;;;;5052559;28;20328;-14
2022/07/08 00:24:51;;;;;;;3.83;1.00;;;;;;;;;;5053546;28;20230;-14
2022/07/08 00:27:18;;;;;;;6.07;1.23;;;;;;;;;;5053921;28;20236;-14
2022/07/08 00:29:46;;;;;;;4.75;1.65;;;;;;;;;;5053328;28;20709;-14
2022/07/08 00:32:13;;;;;;;5.10;1.48;;;;;;;;;;5060394;28;20241;-14
2022/07/08 00:34:49;;;;;;;4.13;1.00;;;;;;;;;;5053655;28;21172;-14
2022/07/08 00:37:16;;;;;;;2.97;0.77;;;;;;;;;;5053821;28;20236;-14
2022/07/08 00:39:45;;;;;;;3.00;1.10;;;;;;;;;;5053664;28;20321;-14
2022/07/08 00:42:12;;;;;;;4.47;1.20;;;;;;;;;;5052897;28;20233;-14
2022/07/08 00:44:40;;;;;;;3.25;0.98;;;;;;;;;;5053858;28;20325;-14
2022/07/08 00:47:07;;;;;;;3.92;0.90;;;;;;;;;;5052961;28;20248;-14
2022/07/08 00:49:34;;;;;;;4.80;1.10;;;;;;;;;;5053690;28;20237;-14
2022/07/08 00:52:02;;;;;;;4.85;1.05;;;;;;;;;;5053562;28;20236;-14
2022/07/08 00:54:29;;;;;;;4.85;0.85;;;;;;;;;;5061880;28;20240;-14
2022/07/08 00:56:58;;;;;;;3.10;0.93;;;;;;;;;;5053292;28;20899;-14
2022/07/08 00:59:26;;;;;;;4.43;1.10;;;;;;;;;;5053552;28;20242;-14
2022/07/08 01:01:53;;;;;;;4.70;1.05;;;;;;;;;;5052977;28;20232;-15
2022/07/08 01:04:20;;;;;;;4.35;0.90;;;;;;;;;;5052959;28;20222;-14
2022/07/08 01:06:48;;;;;;;2.85;0.90;;;;;;;;;;5052872;28;20234;-14
2022/07/08 01:09:15;;;;;;;3.83;0.90;;;;;;;;;;5043039;28;20733;-14
2022/07/08 01:11:43;;;;;;;3.25;0.90;;;;;;;;;;5048976;28;20914;-14
2022/07/08 01:14:12;;;;;;;3.38;0.85;;;;;;;;;;5050296;28;20262;-14
2022/07/08 01:16:39;;;;;;;3.13;1.02;;;;;;;;;;5050877;28;20236;-14
2022/07/08 01:19:07;;;;;;;4.88;1.25;;;;;;;;;;5052745;28;20324;-14
2022/07/08 01:21:35;;;;;;;3.13;0.85;;;;;;;;;;5051620;28;20238;-14
2022/07/08 01:24:03;;;;;;;4.50;1.10;;;;;;;;;;5053008;28;20709;-14
2022/07/08 01:26:30;;;;;;;1.98;0.73;;;;;;;;;;5051487;28;20226;-14
2022/07/08 01:28:58;;;;;;;3.70;1.13;;;;;;;;;;5052752;28;20222;-14
2022/07/08 01:31:25;;;;;;;4.38;1.05;;;;;;;;;;5051203;28;20238;-14
2022/07/08 01:33:52;;;;;;;4.10;1.00;;;;;;;;;;5051374;28;20230;-14
2022/07/08 01:36:20;;;;;;;3.22;0.88;;;;;;;;;;5049014;28;20229;-14
2022/07/08 01:38:48;;;;;;;2.83;0.80;;;;;;;;;;5051047;28;20343;-14
2022/07/08 01:41:16;;;;;;;5.35;1.13;;;;;;;;;;5050275;28;20230;-14
2022/07/08 01:43:44;;;;;;;2.53;0.88;;;;;;;;;;5051989;28;20234;-14
2022/07/08 01:46:11;;;;;;;7.72;1.23;;;;;;;;;;5053221;28;20332;-14
2022/07/08 01:48:39;;;;;;;5.63;1.00;;;;;;;;;;5052985;28;21002;-14
2022/07/08 01:51:06;;;;;;;3.45;0.85;;;;;;;;;;5052631;28;20627;-14
2022/07/08 01:53:34;;;;;;;3.03;0.90;;;;;;;;;;5052504;28;20599;-14
2022/07/08 01:56:02;;;;;;;2.95;0.68;;;;;;;;;;5052416;28;20226;-14
2022/07/08 01:58:29;;;;;;;3.15;0.90;;;;;;;;;;5052657;28;20275;-14
2022/07/08 02:00:57;;;;;;;3.58;0.98;;;;;;;;;;5051711;28;20234;-14
2022/07/08 02:03:25;;;;;;;2.45;0.80;;;;;;;;;;5053032;28;20278;-14
2022/07/08 02:05:52;;;;;;;3.35;0.70;;;;;;;;;;5051102;28;20277;-14
2022/07/08 02:08:23;;;;;;;5.38;0.88;;;;;;;;;;5052306;28;20239;-14
2022/07/08 02:13:36;;;;;;;5.13;0.90;;;;;;;;;;5052482;28;20701;-14
2022/07/08 02:16:04;;;;;;;4.97;1.35;;;;;;;;;;5039675;28;21092;-14
2022/07/08 02:18:32;;;;;;;3.38;0.90;;;;;;;;;;5052232;28;21063;-14
2022/07/08 02:21:00;;;;;;;3.80;1.05;;;;;;;;;;5065744;22;20234;-18
2022/07/08 02:23:27;;;;;;;3.78;0.90;;;;;;;;;;5052864;28;20226;-18
2022/07/08 02:25:55;;;;;;;2.83;0.68;;;;;;;;;;5052319;28;20277;-17
2022/07/08 02:28:22;;;;;;;3.28;0.90;;;;;;;;;;5051496;28;20944;-18
2022/07/08 02:30:51;;;;;;;2.38;0.90;;;;;;;;;;5052357;28;20237;-18
2022/07/08 02:33:18;;;;;;;2.70;0.93;;;;;;;;;;5051261;28;20978;-18
2022/07/08 02:35:46;;;;;;;6.25;1.00;;;;;;;;;;5050747;28;20233;-17
2022/07/08 02:38:13;;;;;;;3.28;1.33;;;;;;;;;;5049012;28;20736;-17
2022/07/08 02:40:40;;;;;;;3.05;0.80;;;;;;;;;;5051115;28;20975;-17
2022/07/08 02:43:10;;;;;;;2.05;0.70;;;;;;;;;;5051496;28;20233;-18
2022/07/08 02:45:38;;;;;;;5.50;1.30;;;;;;;;;;5051833;28;20230;-17
2022/07/08 02:48:06;;;;;;;4.13;1.13;;;;;;;;;;5037445;28;20225;-18
2022/07/08 02:50:34;;;;;;;3.50;0.85;;;;;;;;;;5050553;28;20573;-18
2022/07/08 02:53:01;;;;;;;2.63;0.93;;;;;;;;;;5052169;28;20230;-18
2022/07/08 02:55:29;;;;;;;2.47;0.98;;;;;;;;;;5051818;28;20698;-18
2022/07/08 02:57:56;;;;;;;2.38;0.70;;;;;;;;;;5051729;28;20248;-17
2022/07/08 03:00:23;;;;;;;3.42;0.85;;;;;;;;;;5050663;28;20234;-18
2022/07/08 03:02:51;;;;;;;4.15;0.80;;;;;;;;;;5051369;28;20267;-18
2022/07/08 03:05:19;;;;;;;3.20;0.80;;;;;;;;;;5051090;28;20244;-18
2022/07/08 03:07:47;;;;;;;4.20;1.45;;;;;;;;;;5051146;28;20259;-18
2022/07/08 03:10:14;;;;;;;3.17;0.80;;;;;;;;;;5050334;28;20777;-18
2022/07/08 03:12:41;;;;;;;3.88;0.90;;;;;;;;;;5050993;28;20230;-18
2022/07/08 03:15:09;;;;;;;2.65;0.75;;;;;;;;;;5050360;28;20253;-18
2022/07/08 03:17:37;;;;;;;2.75;0.93;;;;;;;;;;5051076;28;20278;-17
2022/07/08 03:20:05;;;;;;;3.85;1.23;;;;;;;;;;5051173;28;20305;-18
2022/07/08 03:22:34;;;;;;;2.55;0.77;;;;;;;;;;5050200;28;20242;-18
2022/07/08 03:25:01;;;;;;;2.97;0.90;;;;;;;;;;5051003;28;20238;-18
2022/07/08 03:27:29;;;;;;;3.67;1.08;;;;;;;;;;5050998;28;20230;-17
2022/07/08 03:29:56;;;;;;;2.55;0.70;;;;;;;;;;5037467;28;20385;-17
2022/07/08 03:32:24;;;;;;;1.85;0.63;;;;;;;;;;5049417;28;20230;-17
2022/07/08 03:34:51;;;;;;;5.18;1.08;;;;;;;;;;5050369;28;20624;-17
2022/07/08 03:37:19;;;;;;;3.33;0.75;;;;;;;;;;5051360;28;20834;-18
2022/07/08 03:39:48;;;;;;;3.03;0.80;;;;;;;;;;5050101;28;20234;-18
2022/07/08 03:42:14;;;;;;;3.03;0.88;;;;;;;;;;5050786;28;20230;-18
2022/07/08 03:44:41;;;;;;;1.63;0.70;;;;;;;;;;5040983;28;20230;-18
2022/07/08 03:47:09;;;;;;;1.73;0.80;;;;;;;;;;5047772;28;20232;-18
2022/07/08 03:49:36;;;;;;;2.80;0.80;;;;;;;;;;5050439;28;20324;-18
2022/07/08 03:52:04;;;;;;;3.20;0.88;;;;;;;;;;5050655;28;20238;-18
2022/07/08 03:54:31;;;;;;;2.38;0.90;;;;;;;;;;5035743;28;20248;-17
2022/07/08 03:57:00;;;;;;;2.85;0.70;;;;;;;;;;5050386;28;20235;-18
2022/07/08 03:59:27;;;;;;;3.85;0.85;;;;;;;;;;5050667;28;20894;-18
2022/07/08 04:01:55;;;;;;;2.13;0.70;;;;;;;;;;5050530;28;20230;-17
2022/07/08 04:04:22;;;;;;;2.75;0.98;;;;;;;;;;5049672;28;20321;-17
2022/07/08 04:06:50;;;;;;;2.88;0.80;;;;;;;;;;5050272;28;20230;-18
2022/07/08 04:09:17;;;;;;;1.83;0.70;;;;;;;;;;5050173;28;20237;-18
2022/07/08 04:11:45;;;;;;;2.47;0.93;;;;;;;;;;5050595;28;20697;-17
2022/07/08 04:14:13;;;;;;;4.07;0.98;;;;;;;;;;5050577;28;20230;-18
2022/07/08 04:16:41;;;;;;;3.88;1.00;;;;;;;;;;5049336;28;21034;-17
2022/07/08 04:19:08;;;;;;;4.65;1.15;;;;;;;;;;5050787;28;20249;-17
2022/07/08 04:21:36;;;;;;;3.92;0.82;;;;;;;;;;5049734;28;20848;-18
2022/07/08 04:24:03;;;;;;;2.08;0.90;;;;;;;;;;5050408;28;20234;-17
2022/07/08 04:26:32;;;;;;;2.55;0.75;;;;;;;;;;5050027;28;20230;-18
2022/07/08 04:28:59;;;;;;;2.17;0.80;;;;;;;;;;5054524;28;20723;-18
2022/07/08 04:31:28;;;;;;;1.67;0.70;;;;;;;;;;5049794;28;20234;-17
2022/07/08 04:33:55;;;;;;;6.85;1.25;;;;;;;;;;5050463;28;20357;-18
2022/07/08 04:36:23;;;;;;;1.73;0.88;;;;;;;;;;5049931;28;20369;-18
2022/07/08 04:38:50;;;;;;;3.17;0.70;;;;;;;;;;5036417;28;20238;-18
2022/07/08 04:41:17;;;;;;;2.35;1.00;;;;;;;;;;5050313;28;20234;-18
2022/07/08 04:43:45;;;;;;;7.75;0.90;;;;;;;;;;5049939;28;20230;-18
2022/07/08 04:46:12;;;;;;;1.85;0.80;;;;;;;;;;5049957;28;20325;-18
2022/07/08 04:48:42;;;;;;;4.75;0.93;;;;;;;;;;5050083;28;20230;-18
2022/07/08 04:51:09;;;;;;;5.03;0.93;;;;;;;;;;5046811;28;20244;-18
2022/07/08 04:53:36;;;;;;;2.25;0.90;;;;;;;;;;5049660;28;20230;-18
2022/07/08 04:56:04;;;;;;;1.92;0.70;;;;;;;;;;5035573;28;20238;-17
2022/07/08 04:58:31;;;;;;;2.60;0.90;;;;;;;;;;5050022;28;20302;-18
2022/07/08 05:00:59;;;;;;;2.80;1.30;;;;;;;;;;5049099;28;20802;-18
2022/07/08 05:03:26;;;;;;;3.08;1.00;;;;;;;;;;5052393;28;20226;-18
2022/07/08 05:06:03;;;;;;;2.47;0.90;;;;;;;;;;5051258;28;20271;-18
2022/07/08 05:08:30;;;;;;;2.28;1.00;;;;;;;;;;5041388;28;20226;-18
2022/07/08 05:10:58;;;;;;;4.93;1.10;;;;;;;;;;5053107;28;20242;-18
2022/07/08 05:13:26;;;;;;;3.03;1.00;;;;;;;;;;5052316;28;20234;-18
2022/07/08 05:15:53;;;;;;;2.30;0.77;;;;;;;;;;5052668;28;20285;-17
2022/07/08 05:18:21;;;;;;;3.10;0.90;;;;;;;;;;5047237;28;20261;-18
2022/07/08 05:20:48;;;;;;;2.35;1.10;;;;;;;;;;5044130;28;20284;-18
2022/07/08 05:23:17;;;;;;;2.70;0.93;;;;;;;;;;5057317;28;20233;-18
2022/07/08 05:25:44;;;;;;;2.55;1.00;;;;;;;;;;5053126;28;20234;-18
2022/07/08 05:28:11;;;;;;;6.03;1.33;;;;;;;;;;5052875;28;20229;-18
2022/07/08 05:30:39;;;;;;;3.38;1.17;;;;;;;;;;5048826;28;20238;-18
2022/07/08 05:33:06;;;;;;;2.40;0.80;;;;;;;;;;5052394;28;20800;-18
2022/07/08 05:35:34;;;;;;;5.72;0.80;;;;;;;;;;5052377;28;20234;-18
2022/07/08 05:38:01;;;;;;;4.00;1.30;;;;;;;;;;5052726;28;20329;-18
2022/07/08 05:40:30;;;;;;;5.45;1.30;;;;;;;;;;5052496;28;20321;-18
2022/07/08 05:42:57;;;;;;;8.00;1.38;;;;;;;;;;5051834;28;20237;-18
2022/07/08 05:45:25;;;;;;;2.53;0.90;;;;;;;;;;5051214;28;20230;-18
2022/07/08 05:47:52;;;;;;;3.75;1.20;;;;;;;;;;5052523;28;20222;-18
2022/07/08 05:50:19;;;;;;;4.05;1.27;;;;;;;;;;5052825;28;20248;-18
2022/07/08 05:52:47;;;;;;;6.03;1.38;;;;;;;;;;5052370;28;20313;-18
2022/07/08 05:55:14;;;;;;;5.47;1.60;;;;;;;;;;5052252;28;20321;-18
2022/07/08 05:57:43;;;;;;;4.13;1.38;;;;;;;;;;5048863;28;20242;-18
2022/07/08 06:00:11;;;;;;;8.40;1.30;;;;;;;;;;5041933;28;20242;-18
2022/07/08 06:02:38;;;;;;;5.55;1.63;;;;;;;;;;5047875;28;20623;-18
2022/07/08 06:05:06;;;;;;;6.82;1.10;;;;;;;;;;5051940;28;20321;-18
2022/07/08 06:07:34;;;;;;;7.75;1.17;;;;;;;;;;5057523;28;20241;-18
2022/07/08 06:10:01;;;;;;;5.78;1.38;;;;;;;;;;5052107;28;20229;-18
2022/07/08 06:12:29;;;;;;;9.13;1.75;;;;;;;;;;5051576;28;20252;-18
2022/07/08 06:14:57;;;;;;;7.95;1.40;;;;;;;;;;5041120;28;20226;-18
2022/07/08 06:17:25;;;;;;;6.25;1.48;;;;;;;;;;5042819;28;20739;-18
2022/07/08 06:19:52;;;;;;;5.32;1.35;;;;;;;;;;5037354;28;20234;-17
2022/07/08 06:22:19;;;;;;;6.47;1.40;;;;;;;;;;5035373;28;20759;-18
2022/07/08 06:24:47;;;;;;;3.92;1.20;;;;;;;;;;5037775;28;20235;-18
2022/07/08 06:27:14;;;;;;;5.68;1.23;;;;;;;;;;5037361;28;20328;-18
2022/07/08 06:29:41;;;;;;;6.13;1.25;;;;;;;;;;5035936;28;20705;-18
2022/07/08 06:32:10;;;;;;;7.30;1.15;;;;;;;;;;5039436;28;20256;-18
2022/07/08 06:34:38;;;;;;;4.47;1.65;;;;;;;;;;5050400;28;20226;-18
2022/07/08 06:37:05;;;;;;;9.15;1.23;;;;;;;;;;5051130;28;20321;-18
2022/07/08 06:39:32;;;;;;;4.03;1.35;;;;;;;;;;5048135;28;20689;-18
2022/07/08 06:42:00;;;;;;;6.50;1.40;;;;;;;;;;5050904;28;20237;-17
2022/07/08 06:44:27;;;;;;;6.05;1.30;;;;;;;;;;5051079;28;20234;-18
2022/07/08 06:46:54;;;;;;;3.42;1.08;;;;;;;;;;5051137;28;20341;-18
2022/07/08 06:49:23;;;;;;;8.35;1.50;;;;;;;;;;5050692;28;20226;-18
2022/07/08 06:51:51;;;;;;;6.20;1.40;;;;;;;;;;5050034;28;20246;-18
2022/07/08 06:54:37;;;;;;;7.25;1.60;;;;;;;;;;5051052;28;20299;-18
2022/07/08 06:57:05;;;;;;;4.68;1.30;;;;;;;;;;5050535;28;20248;-18
2022/07/08 06:59:32;;;;;;;4.47;1.38;;;;;;;;;;5048680;28;20226;-17
2022/07/08 07:02:19;;;;;;;13.00;1.70;;;;;;;;;;5048953;28;20238;-18
2022/07/08 07:04:48;;;;;;;11.98;2.30;;;;;;;;;;5049982;28;20238;-18
2022/07/08 07:07:16;;;;;;;8.88;1.75;;;;;;;;;;5050821;28;20233;-18
2022/07/08 07:09:47;;;;;;;6.60;1.17;;;;;;;;;;5048161;28;20775;-18
2022/07/08 07:12:14;;;;;;;6.68;1.45;;;;;;;;;;5049809;28;20712;-18
2022/07/08 07:14:42;;;;;;;10.02;1.98;;;;;;;;;;5050778;28;20236;-18
2022/07/08 07:17:09;;;;;;;8.95;1.20;;;;;;;;;;5050450;28;20246;-18
2022/07/08 07:19:37;;;;;;;8.85;1.38;;;;;;;;;;5050080;28;20230;-18
2022/07/08 07:22:05;;;;;;;5.53;1.20;;;;;;;;;;5049178;28;20327;-18
2022/07/08 07:24:33;;;;;;;19.88;2.22;;;;;;;;;;5049903;28;20325;-18
2022/07/08 07:27:00;;;;;;;6.47;1.27;;;;;;;;;;5050668;28;20240;-18
2022/07/08 07:29:28;;;;;;;10.32;1.45;;;;;;;;;;5049772;28;20229;-17
2022/07/08 07:31:55;;;;;;;10.18;1.80;;;;;;;;;;5046782;28;20235;-18
2022/07/08 07:34:22;;;;;;;10.02;1.42;;;;;;;;;;5037737;28;20230;-18
2022/07/08 07:36:50;;;;;;;10.38;1.70;;;;;;;;;;5048719;28;20726;-18
2022/07/08 07:39:25;;;;;;;7.07;1.45;;;;;;;;;;5049724;28;20258;-17
2022/07/08 07:41:53;;;;;;;10.98;1.30;;;;;;;;;;5049739;28;20230;-18
2022/07/08 07:44:20;;;;;;;8.52;1.42;;;;;;;;;;5047496;28;20232;-18
2022/07/08 07:46:47;;;;;;;9.77;1.60;;;;;;;;;;5049342;28;20222;-17
2022/07/08 07:49:15;;;;;;;9.95;1.73;;;;;;;;;;5050846;28;20230;-18
2022/07/08 07:51:42;;;;;;;7.57;1.67;;;;;;;;;;5050253;28;21115;-18
2022/07/08 07:54:09;;;;;;;4.68;1.20;;;;;;;;;;5049843;28;20716;-17
2022/07/08 07:56:38;;;;;;;8.85;1.60;;;;;;;;;;5048506;28;20725;-18
2022/07/08 07:59:05;;;;;;;5.22;1.00;;;;;;;;;;5049977;28;20223;-18
2022/07/08 08:01:33;;;;;;;9.20;1.60;;;;;;;;;;5046629;28;20673;-22
2022/07/08 08:04:01;;;;;;;6.80;1.58;;;;;;;;;;5046223;28;20321;-20
2022/07/08 08:06:28;;;;;;;4.68;1.15;;;;;;;;;;5047224;28;21386;-21
2022/07/08 08:08:57;;;;;;;8.35;1.85;;;;;;;;;;5044790;28;20249;-21
2022/07/08 08:11:25;;;;;;;5.90;1.50;;;;;;;;;;5047035;28;21180;-20
2022/07/08 08:13:54;;;;;;;8.77;1.40;;;;;;;;;;5046325;28;20240;-21
2022/07/08 08:16:21;;;;;;;6.43;1.67;;;;;;;;;;5046763;28;20226;-20
2022/07/08 08:18:48;;;;;;;11.65;1.80;;;;;;;;;;5046308;28;20269;-21
2022/07/08 08:21:16;;;;;;;4.38;1.40;;;;;;;;;;5045293;28;20250;-21
2022/07/08 08:23:43;;;;;;;8.98;1.35;;;;;;;;;;5046625;28;20238;-20
2022/07/08 08:26:10;;;;;;;7.18;2.08;;;;;;;;;;5046661;28;20234;-21
2022/07/08 08:28:38;;;;;;;4.85;1.38;;;;;;;;;;5045472;28;21008;-21
2022/07/08 08:31:06;;;;;;;4.65;1.63;;;;;;;;;;5045742;28;21110;-21
2022/07/08 08:33:34;;;;;;;8.35;1.60;;;;;;;;;;5047469;28;20233;-21
2022/07/08 08:36:01;;;;;;;5.47;1.30;;;;;;;;;;5045671;28;20240;-21
2022/07/08 08:38:29;;;;;;;7.78;1.10;;;;;;;;;;5050543;28;20252;-20
2022/07/08 08:40:57;;;;;;;6.88;1.40;;;;;;;;;;5045815;28;20238;-21
2022/07/08 08:43:24;;;;;;;5.15;1.45;;;;;;;;;;5049938;28;20226;-21
2022/07/08 08:45:52;;;;;;;6.15;1.48;;;;;;;;;;5049784;28;20245;-20
2022/07/08 08:48:22;;;;;;;6.25;1.13;;;;;;;;;;5049619;28;20258;-21
2022/07/08 08:50:54;;;;;;;5.82;1.25;;;;;;;;;;5048798;28;20252;-21
2022/07/08 08:53:23;;;;;;;6.93;1.17;;;;;;;;;;5048769;28;20253;-21
2022/07/08 08:55:51;;;;;;;12.80;1.35;;;;;;;;;;5049419;28;20962;-21
2022/07/08 08:58:19;;;;;;;12.32;1.40;;;;;;;;;;5046596;28;20242;-21
2022/07/08 09:00:46;;;;;;;10.32;2.45;;;;;;;;;;5048920;28;20321;-21
2022/07/08 09:03:13;;;;;;;8.40;1.60;;;;;;;;;;5046646;28;20292;-21
2022/07/08 09:05:42;;;;;;;13.15;1.52;;;;;;;;;;5048785;28;20437;-21
2022/07/08 09:08:10;;;;;;;14.70;1.63;;;;;;;;;;5049415;28;20238;-20
2022/07/08 09:10:37;;;;;;;14.30;2.10;;;;;;;;;;5047141;28;20705;-21
2022/07/08 09:13:05;;;;;;;4.22;1.17;;;;;;;;;;5044822;28;20234;-21
2022/07/08 09:15:33;;;;;;;6.13;1.45;;;;;;;;;;5049044;28;20241;-21
2022/07/08 09:18:01;;;;;;;7.60;1.20;;;;;;;;;;5048350;28;20716;-21
2022/07/08 09:20:29;;;;;;;7.55;1.27;;;;;;;;;;5048625;28;20320;-23
2022/07/08 09:22:59;;;;;;;6.55;1.52;;;;;;;;;;5046089;28;20246;-21
2022/07/08 09:25:26;;;;;;;9.85;1.48;;;;;;;;;;5046194;28;20233;-21
2022/07/08 09:27:54;;;;;;;3.28;1.08;;;;;;;;;;5047738;28;20238;-21
2022/07/08 09:30:23;;;;;;;5.68;1.45;;;;;;;;;;5049032;28;20720;-21
2022/07/08 09:32:58;;;;;;;6.55;1.30;;;;;;;;;;5045306;28;20689;-21
2022/07/08 09:35:30;;;;;;;5.15;1.20;;;;;;;;;;5042768;28;20608;-21
2022/07/08 09:38:02;;;;;;;3.65;1.30;;;;;;;;;;5045399;28;20246;-22
2022/07/08 09:40:30;;;;;;;8.02;1.55;;;;;;;;;;5046638;28;20234;-20
2022/07/08 09:42:58;;;;;;;7.00;1.77;;;;;;;;;;5047611;28;20238;-21
2022/07/08 09:45:29;;;;;;;6.10;1.60;;;;;;;;;;5046668;28;20709;-21
2022/07/08 09:48:03;;;;;;;8.10;1.08;;;;;;;;;;5046742;28;20280;-21
2022/07/08 09:50:34;;;;;;;4.15;1.20;;;;;;;;;;5042151;28;20234;-21
2022/07/08 09:53:23;;;;;;;6.88;1.50;;;;;;;;;;5044410;28;20234;-21
2022/07/08 09:55:52;;;;;;;4.07;1.20;;;;;;;;;;5047989;28;20238;-20
2022/07/08 09:58:21;;;;;;;11.27;1.30;;;;;;;;;;5041032;28;20372;-21
2022/07/08 10:00:48;;;;;;;9.52;1.38;;;;;;;;;;5044609;28;20720;-20
2022/07/08 10:03:16;;;;;;;9.98;1.38;;;;;;;;;;5050681;28;20321;-21
2022/07/08 10:05:43;;;;;;;5.93;1.30;;;;;;;;;;5048452;28;20673;-20
2022/07/08 10:08:11;;;;;;;10.27;1.17;;;;;;;;;;5048172;28;20230;-21
2022/07/08 10:10:41;;;;;;;4.53;1.13;;;;;;;;;;5044807;28;20230;-21
2022/07/08 10:13:08;;;;;;;3.58;0.93;;;;;;;;;;5041778;28;20309;-21
2022/07/08 10:15:36;;;;;;;6.20;1.17;;;;;;;;;;5039861;28;20260;-21
2022/07/08 10:18:05;;;;;;;5.32;1.20;;;;;;;;;;5045068;28;20792;-21
2022/07/08 10:20:33;;;;;;;5.50;1.30;;;;;;;;;;5042962;28;20317;-20
2022/07/08 10:23:01;;;;;;;3.85;1.20;;;;;;;;;;5051027;28;20250;-20
2022/07/08 10:25:28;;;;;;;3.90;1.20;;;;;;;;;;5051959;28;20238;-21
2022/07/08 10:28:05;;;;;;;3.60;0.73;;;;;;;;;;5051294;28;20230;-21
2022/07/08 10:30:44;;;;;;;3.28;1.00;;;;;;;;;;5046627;28;20231;-20
2022/07/08 10:33:11;;;;;;;8.88;1.33;;;;;;;;;;5049890;28;20705;-20
2022/07/08 10:35:44;;;;;;;4.35;1.30;;;;;;;;;;5048270;28;20226;-20
2022/07/08 10:38:11;;;;;;;3.83;1.20;;;;;;;;;;5049194;28;20242;-20
2022/07/08 10:40:46;;;;;;;5.05;1.25;;;;;;;;;;5048012;28;20264;-20
2022/07/08 10:43:22;;;;;;;2.92;1.40;;;;;;;;;;5048836;28;20236;-20
2022/07/08 10:45:59;;;;;;;6.25;1.33;;;;;;;;;;5047742;28;20731;-20
2022/07/08 10:48:27;;;;;;;2.13;0.90;;;;;;;;;;5048510;28;20831;-20
2022/07/08 10:50:54;;;;;;;6.60;1.17;;;;;;;;;;5048768;28;20236;-20
2022/07/08 10:53:52;;;;;;;2.58;0.93;;;;;;;;;;5049477;28;20257;-20
2022/07/08 10:56:44;;;;;;;3.72;1.15;;;;;;;;;;5050023;28;20230;-20
2022/07/08 10:59:19;;;;;;;5.15;1.20;;;;;;;;;;5048996;28;20245;-20
2022/07/08 11:01:49;;;;;;;5.60;1.20;;;;;;;;;;5049800;28;20233;-20
2022/07/08 11:04:20;;;;;;;5.30;1.20;;;;;;;;;;5049266;28;20317;-20
2022/07/08 11:06:48;;;;;;;4.25;0.98;;;;;;;;;;5047681;28;20241;-21
2022/07/08 11:09:16;;;;;;;5.70;1.67;;;;;;;;;;5048151;28;20234;-20
2022/07/08 11:11:44;;;;;;;4.88;1.20;;;;;;;;;;5046459;28;20265;-20
2022/07/08 11:14:12;;;;;;;7.35;1.45;;;;;;;;;;5048913;28;20333;-20
2022/07/08 11:16:41;;;;;;;3.42;1.08;;;;;;;;;;5048832;28;20240;-20
2022/07/08 11:19:08;;;;;;;5.22;1.60;;;;;;;;;;5049041;28;20612;-20
2022/07/08 11:21:36;;;;;;;5.20;1.35;;;;;;;;;;5048510;28;20636;-21
2022/07/08 11:24:04;;;;;;;3.45;1.38;;;;;;;;;;5051001;28;20701;-21
2022/07/08 11:26:31;;;;;;;7.47;1.63;;;;;;;;;;5050570;28;20230;-20
2022/07/08 11:28:58;;;;;;;6.03;1.63;;;;;;;;;;5050593;28;20237;-21
2022/07/08 11:31:26;;;;;;;6.45;1.48;;;;;;;;;;5049850;28;20297;-20
2022/07/08 11:33:55;;;;;;;3.55;1.20;;;;;;;;;;5051157;28;20242;-20
2022/07/08 11:36:22;;;;;;;8.80;1.80;;;;;;;;;;5050467;28;20313;-20
2022/07/08 11:38:50;;;;;;;8.25;2.00;;;;;;;;;;5050903;28;20234;-21
2022/07/08 11:41:20;;;;;;;2.28;1.20;;;;;;;;;;5050973;28;20236;-20
2022/07/08 11:43:48;;;;;;;6.60;1.70;;;;;;;;;;5050347;28;20232;-20
2022/07/08 11:46:16;;;;;;;9.25;1.65;;;;;;;;;;5050378;28;20268;-21
2022/07/08 11:48:44;;;;;;;6.47;1.55;;;;;;;;;;5051784;28;20235;-21
2022/07/08 11:51:16;;;;;;;11.30;2.00;;;;;;;;;;5051764;28;20222;-20
2022/07/08 11:53:43;;;;;;;8.00;1.70;;;;;;;;;;5051147;28;20234;-21
2022/07/08 11:56:11;;;;;;;12.07;2.97;;;;;;;;;;5049915;28;20237;-20
2022/07/08 11:58:40;;;;;;;7.03;1.98;;;;;;;;;;5049957;28;20265;-21
2022/07/08 12:01:08;;;;;;;8.68;2.30;;;;;;;;;;5050648;28;20230;-20
2022/07/08 12:03:35;;;;;;;8.15;2.38;;;;;;;;;;5050300;28;20221;-20
2022/07/08 12:06:03;;;;;;;9.73;2.30;;;;;;;;;;5051491;28;20230;-21
2022/07/08 12:08:33;;;;;;;8.68;2.38;;;;;;;;;;5050070;28;20304;-21
2022/07/08 12:11:13;;;;;;;7.93;2.40;;;;;;;;;;5051134;28;20313;-20
2022/07/08 12:13:44;;;;;;;7.10;2.13;;;;;;;;;;5054732;28;20241;-21
2022/07/08 12:16:11;;;;;;;12.43;2.53;;;;;;;;;;5049774;28;20689;-21
2022/07/08 12:18:44;;;;;;;13.95;2.55;;;;;;;;;;5049219;28;20259;-21
2022/07/08 12:21:18;;;;;;;9.68;2.47;;;;;;;;;;5051812;28;20337;-20
2022/07/08 12:23:57;;;;;;;5.32;2.28;;;;;;;;;;5053643;28;20240;-21
2022/07/08 12:26:24;;;;;;;7.45;2.45;;;;;;;;;;5052724;28;22141;-21
2022/07/08 12:28:52;;;;;;;5.60;2.38;;;;;;;;;;5054122;28;20317;-20
2022/07/08 12:31:32;;;;;;;4.57;2.25;;;;;;;;;;5052272;28;20658;-21
2022/07/08 12:34:00;;;;;;;6.15;2.30;;;;;;;;;;5043410;28;21018;-21
2022/07/08 12:36:28;;;;;;;7.05;2.10;;;;;;;;;;5038541;28;20237;-21
2022/07/08 12:38:56;;;;;;;8.13;2.65;;;;;;;;;;5041391;28;20230;-21
2022/07/08 12:41:24;;;;;;;4.25;2.30;;;;;;;;;;5051759;28;20329;-21
2022/07/08 12:43:51;;;;;;;5.93;2.53;;;;;;;;;;5040438;28;20332;-21
2022/07/08 12:46:19;;;;;;;5.53;2.13;;;;;;;;;;5053097;28;20234;-21
2022/07/08 12:48:46;;;;;;;6.15;2.33;;;;;;;;;;5042831;28;20456;-21
2022/07/08 12:51:14;;;;;;;6.53;2.47;;;;;;;;;;5034493;28;20317;-21
2022/07/08 12:53:41;;;;;;;6.47;2.20;;;;;;;;;;5046702;28;20719;-21
2022/07/08 12:56:10;;;;;;;4.32;2.22;;;;;;;;;;5046141;28;20755;-21
2022/07/08 12:58:37;;;;;;;8.30;2.38;;;;;;;;;;5049644;28;20321;-20
2022/07/08 13:01:05;;;;;;;6.07;2.38;;;;;;;;;;5054401;28;20238;-21
2022/07/08 13:03:32;;;;;;;6.88;2.33;;;;;;;;;;5052898;28;20226;-21
2022/07/08 13:06:00;;;;;;;7.80;2.45;;;;;;;;;;5052746;28;20337;-20
2022/07/08 13:08:28;;;;;;;8.10;2.17;;;;;;;;;;5053865;28;20234;-20
2022/07/08 13:10:55;;;;;;;6.35;2.25;;;;;;;;;;5053513;28;20226;-20
2022/07/08 13:13:24;;;;;;;6.60;2.00;;;;;;;;;;5049380;28;20238;-20
2022/07/08 13:15:51;;;;;;;8.48;3.17;;;;;;;;;;5049893;28;20234;-20
2022/07/08 13:18:19;;;;;;;6.40;2.20;;;;;;;;;;5052509;28;20230;-20
2022/07/08 13:20:47;;;;;;;3.72;1.98;;;;;;;;;;5051635;28;20768;-20
2022/07/08 13:23:14;;;;;;;5.85;1.98;;;;;;;;;;5052066;28;20230;-20
2022/07/08 13:25:42;;;;;;;4.43;2.10;;;;;;;;;;5052442;28;20225;-20
2022/07/08 13:28:10;;;;;;;3.95;2.05;;;;;;;;;;5053409;28;20728;-20
2022/07/08 13:30:48;;;;;;;6.38;2.05;;;;;;;;;;5046285;28;20234;-20
2022/07/08 13:33:15;;;;;;;5.07;1.98;;;;;;;;;;5038819;28;20238;-20
2022/07/08 13:35:43;;;;;;;4.00;2.17;;;;;;;;;;5052466;28;20246;-20
2022/07/08 13:38:10;;;;;;;4.53;2.28;;;;;;;;;;5051713;28;20226;-20
2022/07/08 13:40:37;;;;;;;5.53;1.70;;;;;;;;;;5052422;28;20246;-21
2022/07/08 13:43:05;;;;;;;4.05;2.15;;;;;;;;;;5046697;28;20241;-21
2022/07/08 13:45:32;;;;;;;6.18;2.30;;;;;;;;;;5047126;28;20238;-21
2022/07/08 13:48:01;;;;;;;4.68;2.30;;;;;;;;;;5047524;28;20246;-21
2022/07/08 13:50:28;;;;;;;5.32;2.25;;;;;;;;;;5049384;28;20230;-21
2022/07/08 13:52:56;;;;;;;5.65;2.10;;;;;;;;;;5044868;28;21172;-21
2022/07/08 13:55:23;;;;;;;5.82;2.35;;;;;;;;;;5048080;28;20230;-20
2022/07/08 13:57:51;;;;;;;4.07;2.25;;;;;;;;;;5046879;28;20230;-21
2022/07/08 14:00:18;;;;;;;5.93;2.20;;;;;;;;;;5045786;28;20246;-20
2022/07/08 14:02:45;;;;;;;7.53;2.22;;;;;;;;;;5045156;28;20244;-21
2022/07/08 14:05:14;;;;;;;5.03;2.30;;;;;;;;;;5048183;28;20236;-21
2022/07/08 14:07:42;;;;;;;5.60;2.20;;;;;;;;;;5044436;28;21740;-21
2022/07/08 14:10:09;;;;;;;4.00;1.83;;;;;;;;;;5046734;28;20998;-21
2022/07/08 14:12:36;;;;;;;3.28;1.90;;;;;;;;;;5047359;28;20238;-21
2022/07/08 14:15:04;;;;;;;5.50;1.95;;;;;;;;;;5047142;28;20230;-21
2022/07/08 14:17:34;;;;;;;8.48;2.25;;;;;;;;;;5044922;28;21085;-20
2022/07/08 14:20:02;;;;;;;3.90;2.05;;;;;;;;;;5046176;28;20238;-20
2022/07/08 14:22:31;;;;;;;3.65;1.67;;;;;;;;;;5046603;28;20245;-20
2022/07/08 14:24:59;;;;;;;4.13;2.08;;;;;;;;;;5044754;28;20780;-21
2022/07/08 14:27:26;;;;;;;3.65;2.00;;;;;;;;;;5047160;28;20234;-20
2022/07/08 14:29:53;;;;;;;6.15;1.80;;;;;;;;;;5045883;28;20273;-21
2022/07/08 14:32:21;;;;;;;2.83;1.52;;;;;;;;;;5045369;28;20238;-20
2022/07/08 14:34:49;;;;;;;6.22;2.00;;;;;;;;;;5045934;28;20245;-21
2022/07/08 14:37:16;;;;;;;5.45;2.40;;;;;;;;;;5047718;28;20257;-21
2022/07/08 14:39:45;;;;;;;4.28;2.10;;;;;;;;;;5045708;28;20269;-20
2022/07/08 14:42:12;;;;;;;4.47;1.63;;;;;;;;;;5046164;28;20242;-20
2022/07/08 14:44:40;;;;;;;5.50;1.92;;;;;;;;;;5046375;28;20682;-21
2022/07/08 14:47:07;;;;;;;3.60;1.80;;;;;;;;;;5045014;28;21042;-21
2022/07/08 14:49:36;;;;;;;6.53;1.67;;;;;;;;;;5046732;28;20718;-20
2022/07/08 14:52:04;;;;;;;3.17;1.33;;;;;;;;;;5046910;28;20234;-21